sensor_id;sensor_type;location;lat;lon;timestamp;P1;durP1;ratioP1;P2;durP2;ratioP2
15077;SDS011;7638;49.760;8.646;2023-04-15T00:07:25;2.43;;;1.20;;
15077;SDS011;7638;49.760;8.646;2023-04-15T00:09:51;1.17;;;1.03;;
15077;SDS011;7638;49.760;8.646;2023-04-15T00:12:20;3.27;;;1.20;;
15077;SDS011;7638;49.760;8.646;2023-04-15T00:14:46;3.87;;;1.60;;
15077;SDS011;7638;49.760;8.646;2023-04-15T00:17:12;3.00;;;1.20;;
15077;SDS011;7638;49.760;8.646;2023-04-15T00:19:38;4.87;;;1.70;;
15077;SDS011;7638;49.760;8.646;2023-04-15T00:22:04;4.30;;;1.53;;
15077;SDS011;7638;49.760;8.646;2023-04-15T00:24:31;2.13;;;1.20;;
15077;SDS011;7638;49.760;8.646;2023-04-15T00:26:57;2.57;;;1.30;;
15077;SDS011;7638;49.760;8.646;2023-04-15T00:29:23;2.97;;;1.40;;
15077;SDS011;7638;49.760;8.646;2023-04-15T00:34:53;2.43;;;1.30;;
15077;SDS011;7638;49.760;8.646;2023-04-15T00:37:20;2.77;;;1.27;;
15077;SDS011;7638;49.760;8.646;2023-04-15T00:39:47;4.93;;;1.87;;
15077;SDS011;7638;49.760;8.646;2023-04-15T00:42:12;5.43;;;1.10;;
15077;SDS011;7638;49.760;8.646;2023-04-15T00:44:38;2.10;;;1.10;;
15077;SDS011;7638;49.760;8.646;2023-04-15T00:47:05;1.93;;;1.30;;
15077;SDS011;7638;49.760;8.646;2023-04-15T00:49:31;3.13;;;1.33;;
15077;SDS011;7638;49.760;8.646;2023-04-15T00:51:58;5.33;;;1.47;;
15077;SDS011;7638;49.760;8.646;2023-04-15T00:54:23;4.53;;;1.40;;
15077;SDS011;7638;49.760;8.646;2023-04-15T00:56:50;2.53;;;1.40;;
15077;SDS011;7638;49.760;8.646;2023-04-15T00:59:16;1.20;;;1.10;;
15077;SDS011;7638;49.760;8.646;2023-04-15T01:04:46;4.47;;;1.57;;
15077;SDS011;7638;49.760;8.646;2023-04-15T01:07:12;1.67;;;1.20;;
15077;SDS011;7638;49.760;8.646;2023-04-15T01:09:38;2.17;;;1.50;;
15077;SDS011;7638;49.760;8.646;2023-04-15T01:12:05;2.43;;;1.10;;
15077;SDS011;7638;49.760;8.646;2023-04-15T01:14:32;2.00;;;1.23;;
15077;SDS011;7638;49.760;8.646;2023-04-15T01:16:58;8.03;;;1.73;;
15077;SDS011;7638;49.760;8.646;2023-04-15T01:19:24;4.37;;;1.63;;
15077;SDS011;7638;49.760;8.646;2023-04-15T01:21:51;8.83;;;1.60;;
15077;SDS011;7638;49.760;8.646;2023-04-15T01:24:17;2.70;;;1.33;;
15077;SDS011;7638;49.760;8.646;2023-04-15T01:26:44;6.93;;;1.67;;
15077;SDS011;7638;49.760;8.646;2023-04-15T01:29:10;4.00;;;1.30;;
15077;SDS011;7638;49.760;8.646;2023-04-15T01:31:37;2.00;;;1.53;;
15077;SDS011;7638;49.760;8.646;2023-04-15T01:34:03;1.80;;;1.03;;
15077;SDS011;7638;49.760;8.646;2023-04-15T01:36:30;4.30;;;1.40;;
15077;SDS011;7638;49.760;8.646;2023-04-15T01:38:56;2.37;;;1.03;;
15077;SDS011;7638;49.760;8.646;2023-04-15T01:41:26;2.73;;;1.10;;
15077;SDS011;7638;49.760;8.646;2023-04-15T01:43:52;2.63;;;1.00;;
15077;SDS011;7638;49.760;8.646;2023-04-15T01:46:18;1.37;;;1.23;;
15077;SDS011;7638;49.760;8.646;2023-04-15T01:48:45;1.63;;;1.10;;
15077;SDS011;7638;49.760;8.646;2023-04-15T01:51:11;3.77;;;1.90;;
15077;SDS011;7638;49.760;8.646;2023-04-15T01:53:37;3.20;;;1.97;;
15077;SDS011;7638;49.760;8.646;2023-04-15T01:56:03;3.03;;;1.40;;
15077;SDS011;7638;49.760;8.646;2023-04-15T01:58:29;2.53;;;1.10;;
15077;SDS011;7638;49.760;8.646;2023-04-15T02:00:55;1.90;;;1.70;;
15077;SDS011;7638;49.760;8.646;2023-04-15T02:03:21;2.00;;;1.53;;
15077;SDS011;7638;49.760;8.646;2023-04-15T02:05:47;5.13;;;1.80;;
15077;SDS011;7638;49.760;8.646;2023-04-15T02:08:14;5.20;;;1.97;;
15077;SDS011;7638;49.760;8.646;2023-04-15T02:10:41;1.30;;;1.20;;
15077;SDS011;7638;49.760;8.646;2023-04-15T02:13:07;7.23;;;1.70;;
15077;SDS011;7638;49.760;8.646;2023-04-15T02:15:33;1.47;;;1.33;;
15077;SDS011;7638;49.760;8.646;2023-04-15T02:17:59;5.23;;;1.70;;
15077;SDS011;7638;49.760;8.646;2023-04-15T02:20:25;2.40;;;1.47;;
15077;SDS011;7638;49.760;8.646;2023-04-15T02:22:52;2.20;;;1.70;;
15077;SDS011;7638;49.760;8.646;2023-04-15T02:25:17;4.53;;;1.30;;
15077;SDS011;7638;49.760;8.646;2023-04-15T02:27:44;2.33;;;1.40;;
15077;SDS011;7638;49.760;8.646;2023-04-15T02:30:10;2.50;;;1.40;;
15077;SDS011;7638;49.760;8.646;2023-04-15T02:32:37;3.80;;;1.20;;
15077;SDS011;7638;49.760;8.646;2023-04-15T02:35:03;3.00;;;1.40;;
15077;SDS011;7638;49.760;8.646;2023-04-15T02:37:30;1.53;;;1.20;;
15077;SDS011;7638;49.760;8.646;2023-04-15T02:39:56;2.47;;;1.67;;
15077;SDS011;7638;49.760;8.646;2023-04-15T02:42:22;4.33;;;1.43;;
15077;SDS011;7638;49.760;8.646;2023-04-15T02:44:51;1.37;;;1.27;;
15077;SDS011;7638;49.760;8.646;2023-04-15T02:47:18;1.37;;;1.27;;
15077;SDS011;7638;49.760;8.646;2023-04-15T02:49:45;1.90;;;1.53;;
15077;SDS011;7638;49.760;8.646;2023-04-15T02:52:11;2.60;;;1.53;;
15077;SDS011;7638;49.760;8.646;2023-04-15T02:54:37;2.30;;;1.53;;
15077;SDS011;7638;49.760;8.646;2023-04-15T02:57:03;1.70;;;1.60;;
15077;SDS011;7638;49.760;8.646;2023-04-15T02:59:30;1.87;;;1.53;;
15077;SDS011;7638;49.760;8.646;2023-04-15T03:08:03;2.90;;;1.80;;
15077;SDS011;7638;49.760;8.646;2023-04-15T03:10:29;2.20;;;1.20;;
15077;SDS011;7638;49.760;8.646;2023-04-15T03:12:55;2.27;;;1.67;;
15077;SDS011;7638;49.760;8.646;2023-04-15T03:15:21;2.57;;;1.43;;
15077;SDS011;7638;49.760;8.646;2023-04-15T03:17:47;5.50;;;1.63;;
15077;SDS011;7638;49.760;8.646;2023-04-15T03:20:13;3.70;;;1.37;;
15077;SDS011;7638;49.760;8.646;2023-04-15T03:22:39;2.20;;;1.00;;
15077;SDS011;7638;49.760;8.646;2023-04-15T03:25:05;4.07;;;1.43;;
15077;SDS011;7638;49.760;8.646;2023-04-15T03:27:34;1.83;;;1.30;;
15077;SDS011;7638;49.760;8.646;2023-04-15T03:30:00;4.30;;;1.30;;
15077;SDS011;7638;49.760;8.646;2023-04-15T03:35:30;2.53;;;1.23;;
15077;SDS011;7638;49.760;8.646;2023-04-15T03:37:56;6.37;;;1.70;;
15077;SDS011;7638;49.760;8.646;2023-04-15T03:40:22;2.97;;;1.33;;
15077;SDS011;7638;49.760;8.646;2023-04-15T03:42:48;2.07;;;1.40;;
15077;SDS011;7638;49.760;8.646;2023-04-15T03:45:14;5.13;;;1.47;;
15077;SDS011;7638;49.760;8.646;2023-04-15T03:47:41;2.07;;;1.60;;
15077;SDS011;7638;49.760;8.646;2023-04-15T03:50:07;3.13;;;1.57;;
15077;SDS011;7638;49.760;8.646;2023-04-15T03:52:33;3.47;;;1.87;;
15077;SDS011;7638;49.760;8.646;2023-04-15T03:54:59;3.43;;;1.63;;
15077;SDS011;7638;49.760;8.646;2023-04-15T03:57:25;2.83;;;1.60;;
15077;SDS011;7638;49.760;8.646;2023-04-15T03:59:51;1.97;;;1.30;;
15077;SDS011;7638;49.760;8.646;2023-04-15T04:11:25;3.23;;;1.67;;
15077;SDS011;7638;49.760;8.646;2023-04-15T04:13:52;2.93;;;1.57;;
15077;SDS011;7638;49.760;8.646;2023-04-15T04:16:18;1.70;;;1.53;;
15077;SDS011;7638;49.760;8.646;2023-04-15T04:18:46;3.63;;;1.43;;
15077;SDS011;7638;49.760;8.646;2023-04-15T04:21:12;2.63;;;1.37;;
15077;SDS011;7638;49.760;8.646;2023-04-15T04:23:38;1.97;;;1.77;;
15077;SDS011;7638;49.760;8.646;2023-04-15T04:26:04;4.53;;;1.50;;
15077;SDS011;7638;49.760;8.646;2023-04-15T04:28:30;1.80;;;1.70;;
15077;SDS011;7638;49.760;8.646;2023-04-15T04:30:56;1.97;;;1.77;;
15077;SDS011;7638;49.760;8.646;2023-04-15T04:33:22;5.07;;;1.80;;
15077;SDS011;7638;49.760;8.646;2023-04-15T04:35:48;3.67;;;1.63;;
15077;SDS011;7638;49.760;8.646;2023-04-15T04:38:14;5.30;;;2.03;;
15077;SDS011;7638;49.760;8.646;2023-04-15T04:40:40;3.60;;;1.60;;
15077;SDS011;7638;49.760;8.646;2023-04-15T04:43:06;2.70;;;1.67;;
15077;SDS011;7638;49.760;8.646;2023-04-15T04:45:32;4.10;;;1.97;;
15077;SDS011;7638;49.760;8.646;2023-04-15T04:47:58;1.90;;;1.50;;
15077;SDS011;7638;49.760;8.646;2023-04-15T04:50:24;2.83;;;1.93;;
15077;SDS011;7638;49.760;8.646;2023-04-15T04:52:51;2.20;;;1.93;;
15077;SDS011;7638;49.760;8.646;2023-04-15T04:55:17;2.00;;;1.57;;
15077;SDS011;7638;49.760;8.646;2023-04-15T04:57:43;3.00;;;1.93;;
15077;SDS011;7638;49.760;8.646;2023-04-15T05:00:09;4.93;;;2.33;;
15077;SDS011;7638;49.760;8.646;2023-04-15T05:05:38;1.80;;;1.70;;
15077;SDS011;7638;49.760;8.646;2023-04-15T05:08:05;1.63;;;1.53;;
15077;SDS011;7638;49.760;8.646;2023-04-15T05:10:31;4.93;;;1.93;;
15077;SDS011;7638;49.760;8.646;2023-04-15T05:12:57;1.80;;;1.70;;
15077;SDS011;7638;49.760;8.646;2023-04-15T05:15:23;4.20;;;2.03;;
15077;SDS011;7638;49.760;8.646;2023-04-15T05:17:49;2.27;;;1.67;;
15077;SDS011;7638;49.760;8.646;2023-04-15T05:20:16;3.50;;;1.57;;
15077;SDS011;7638;49.760;8.646;2023-04-15T05:22:42;2.23;;;1.90;;
15077;SDS011;7638;49.760;8.646;2023-04-15T05:25:08;3.60;;;1.43;;
15077;SDS011;7638;49.760;8.646;2023-04-15T05:27:34;3.43;;;1.57;;
15077;SDS011;7638;49.760;8.646;2023-04-15T05:30:00;4.33;;;1.70;;
15077;SDS011;7638;49.760;8.646;2023-04-15T05:35:29;3.50;;;1.77;;
15077;SDS011;7638;49.760;8.646;2023-04-15T05:37:55;1.83;;;1.43;;
15077;SDS011;7638;49.760;8.646;2023-04-15T05:40:21;6.50;;;2.13;;
15077;SDS011;7638;49.760;8.646;2023-04-15T05:42:48;3.60;;;1.60;;
15077;SDS011;7638;49.760;8.646;2023-04-15T05:45:14;3.20;;;1.80;;
15077;SDS011;7638;49.760;8.646;2023-04-15T05:47:40;2.93;;;1.53;;
15077;SDS011;7638;49.760;8.646;2023-04-15T05:50:06;2.60;;;1.83;;
15077;SDS011;7638;49.760;8.646;2023-04-15T05:52:32;4.20;;;1.87;;
15077;SDS011;7638;49.760;8.646;2023-04-15T05:54:58;3.00;;;1.70;;
15077;SDS011;7638;49.760;8.646;2023-04-15T05:57:24;1.70;;;1.60;;
15077;SDS011;7638;49.760;8.646;2023-04-15T05:59:50;3.13;;;1.80;;
15077;SDS011;7638;49.760;8.646;2023-04-15T06:02:20;5.07;;;2.17;;
15077;SDS011;7638;49.760;8.646;2023-04-15T06:04:46;2.63;;;1.60;;
15077;SDS011;7638;49.760;8.646;2023-04-15T06:07:12;2.37;;;1.70;;
15077;SDS011;7638;49.760;8.646;2023-04-15T06:09:38;2.33;;;1.80;;
15077;SDS011;7638;49.760;8.646;2023-04-15T06:12:05;1.70;;;1.37;;
15077;SDS011;7638;49.760;8.646;2023-04-15T06:14:36;2.77;;;1.80;;
15077;SDS011;7638;49.760;8.646;2023-04-15T06:17:02;1.87;;;1.60;;
15077;SDS011;7638;49.760;8.646;2023-04-15T06:19:28;5.40;;;2.70;;
15077;SDS011;7638;49.760;8.646;2023-04-15T06:21:54;3.13;;;2.37;;
15077;SDS011;7638;49.760;8.646;2023-04-15T06:24:20;2.90;;;2.10;;
15077;SDS011;7638;49.760;8.646;2023-04-15T06:26:46;3.13;;;2.33;;
15077;SDS011;7638;49.760;8.646;2023-04-15T06:29:12;5.77;;;2.50;;
15077;SDS011;7638;49.760;8.646;2023-04-15T06:31:38;4.43;;;2.10;;
15077;SDS011;7638;49.760;8.646;2023-04-15T06:34:04;4.00;;;2.70;;
15077;SDS011;7638;49.760;8.646;2023-04-15T06:36:31;8.00;;;3.23;;
15077;SDS011;7638;49.760;8.646;2023-04-15T06:38:57;7.20;;;2.30;;
15077;SDS011;7638;49.760;8.646;2023-04-15T06:41:23;9.13;;;3.83;;
15077;SDS011;7638;49.760;8.646;2023-04-15T06:43:49;3.37;;;2.63;;
15077;SDS011;7638;49.760;8.646;2023-04-15T06:46:15;3.47;;;3.07;;
15077;SDS011;7638;49.760;8.646;2023-04-15T06:48:41;4.40;;;2.77;;
15077;SDS011;7638;49.760;8.646;2023-04-15T06:51:08;7.93;;;2.53;;
15077;SDS011;7638;49.760;8.646;2023-04-15T06:53:34;3.07;;;2.23;;
15077;SDS011;7638;49.760;8.646;2023-04-15T06:56:05;6.87;;;2.60;;
15077;SDS011;7638;49.760;8.646;2023-04-15T06:58:31;2.67;;;2.07;;
15077;SDS011;7638;49.760;8.646;2023-04-15T07:00:57;6.40;;;3.07;;
15077;SDS011;7638;49.760;8.646;2023-04-15T07:03:23;7.03;;;4.17;;
15077;SDS011;7638;49.760;8.646;2023-04-15T07:05:49;7.60;;;4.83;;
15077;SDS011;7638;49.760;8.646;2023-04-15T07:08:15;11.37;;;5.50;;
15077;SDS011;7638;49.760;8.646;2023-04-15T07:10:41;13.67;;;5.20;;
15077;SDS011;7638;49.760;8.646;2023-04-15T07:13:10;10.20;;;6.13;;
15077;SDS011;7638;49.760;8.646;2023-04-15T07:15:42;10.67;;;5.93;;
15077;SDS011;7638;49.760;8.646;2023-04-15T07:18:11;12.50;;;6.47;;
15077;SDS011;7638;49.760;8.646;2023-04-15T07:20:37;9.23;;;5.37;;
15077;SDS011;7638;49.760;8.646;2023-04-15T07:23:03;7.50;;;4.30;;
15077;SDS011;7638;49.760;8.646;2023-04-15T07:25:30;10.13;;;5.67;;
15077;SDS011;7638;49.760;8.646;2023-04-15T07:27:56;6.10;;;3.37;;
15077;SDS011;7638;49.760;8.646;2023-04-15T07:30:22;5.60;;;3.43;;
15077;SDS011;7638;49.760;8.646;2023-04-15T07:32:48;4.80;;;2.90;;
15077;SDS011;7638;49.760;8.646;2023-04-15T07:35:14;5.37;;;3.67;;
15077;SDS011;7638;49.760;8.646;2023-04-15T07:37:40;4.53;;;3.17;;
15077;SDS011;7638;49.760;8.646;2023-04-15T07:40:07;6.23;;;3.43;;
15077;SDS011;7638;49.760;8.646;2023-04-15T07:42:34;5.13;;;2.90;;
15077;SDS011;7638;49.760;8.646;2023-04-15T07:45:00;4.20;;;2.73;;
15077;SDS011;7638;49.760;8.646;2023-04-15T07:47:26;3.80;;;3.03;;
15077;SDS011;7638;49.760;8.646;2023-04-15T07:49:52;5.13;;;2.70;;
15077;SDS011;7638;49.760;8.646;2023-04-15T07:52:18;4.37;;;2.80;;
15077;SDS011;7638;49.760;8.646;2023-04-15T07:54:44;7.60;;;3.73;;
15077;SDS011;7638;49.760;8.646;2023-04-15T07:57:10;5.77;;;3.10;;
15077;SDS011;7638;49.760;8.646;2023-04-15T07:59:36;5.17;;;3.27;;
15077;SDS011;7638;49.760;8.646;2023-04-15T08:02:02;5.37;;;4.03;;
15077;SDS011;7638;49.760;8.646;2023-04-15T08:04:28;4.77;;;3.73;;
15077;SDS011;7638;49.760;8.646;2023-04-15T08:06:55;5.83;;;3.73;;
15077;SDS011;7638;49.760;8.646;2023-04-15T08:09:25;4.60;;;3.13;;
15077;SDS011;7638;49.760;8.646;2023-04-15T08:11:54;6.80;;;3.80;;
15077;SDS011;7638;49.760;8.646;2023-04-15T08:14:21;7.23;;;4.33;;
15077;SDS011;7638;49.760;8.646;2023-04-15T08:16:47;4.43;;;3.53;;
15077;SDS011;7638;49.760;8.646;2023-04-15T08:19:16;4.07;;;3.57;;
15077;SDS011;7638;49.760;8.646;2023-04-15T08:21:42;6.73;;;4.00;;
15077;SDS011;7638;49.760;8.646;2023-04-15T08:24:08;8.60;;;4.67;;
15077;SDS011;7638;49.760;8.646;2023-04-15T08:26:35;7.93;;;4.97;;
15077;SDS011;7638;49.760;8.646;2023-04-15T08:29:01;6.20;;;4.40;;
15077;SDS011;7638;49.760;8.646;2023-04-15T08:31:28;9.40;;;4.13;;
15077;SDS011;7638;49.760;8.646;2023-04-15T08:33:55;6.83;;;4.43;;
15077;SDS011;7638;49.760;8.646;2023-04-15T08:36:21;5.57;;;4.33;;
15077;SDS011;7638;49.760;8.646;2023-04-15T08:38:47;7.23;;;5.17;;
15077;SDS011;7638;49.760;8.646;2023-04-15T08:41:23;6.33;;;4.83;;
15077;SDS011;7638;49.760;8.646;2023-04-15T08:43:55;7.93;;;4.67;;
15077;SDS011;7638;49.760;8.646;2023-04-15T08:46:22;7.77;;;4.93;;
15077;SDS011;7638;49.760;8.646;2023-04-15T08:48:48;10.60;;;4.87;;
15077;SDS011;7638;49.760;8.646;2023-04-15T08:51:15;5.10;;;4.20;;
15077;SDS011;7638;49.760;8.646;2023-04-15T08:53:42;5.97;;;5.00;;
15077;SDS011;7638;49.760;8.646;2023-04-15T08:56:09;5.67;;;4.30;;
15077;SDS011;7638;49.760;8.646;2023-04-15T08:58:36;6.93;;;4.57;;
15077;SDS011;7638;49.760;8.646;2023-04-15T09:01:02;7.00;;;4.60;;
15077;SDS011;7638;49.760;8.646;2023-04-15T09:03:28;5.67;;;3.93;;
15077;SDS011;7638;49.760;8.646;2023-04-15T09:05:55;6.47;;;4.33;;
15077;SDS011;7638;49.760;8.646;2023-04-15T09:08:22;4.17;;;3.77;;
15077;SDS011;7638;49.760;8.646;2023-04-15T09:10:48;7.73;;;4.63;;
15077;SDS011;7638;49.760;8.646;2023-04-15T09:13:14;3.80;;;3.13;;
15077;SDS011;7638;49.760;8.646;2023-04-15T09:15:40;3.50;;;2.87;;
15077;SDS011;7638;49.760;8.646;2023-04-15T09:18:06;2.97;;;2.60;;
15077;SDS011;7638;49.760;8.646;2023-04-15T09:20:39;5.13;;;3.00;;
15077;SDS011;7638;49.760;8.646;2023-04-15T09:23:13;2.47;;;2.03;;
15077;SDS011;7638;49.760;8.646;2023-04-15T09:25:40;3.07;;;1.87;;
15077;SDS011;7638;49.760;8.646;2023-04-15T09:28:09;5.20;;;2.30;;
15077;SDS011;7638;49.760;8.646;2023-04-15T09:30:35;2.80;;;2.20;;
15077;SDS011;7638;49.760;8.646;2023-04-15T09:33:05;2.90;;;2.07;;
15077;SDS011;7638;49.760;8.646;2023-04-15T09:35:32;5.17;;;2.60;;
15077;SDS011;7638;49.760;8.646;2023-04-15T09:40:41;3.53;;;2.13;;
15077;SDS011;7638;49.760;8.646;2023-04-15T09:43:07;2.77;;;2.00;;
15077;SDS011;7638;49.760;8.646;2023-04-15T09:45:35;3.63;;;2.40;;
15077;SDS011;7638;49.760;8.646;2023-04-15T09:50:42;2.37;;;1.50;;
15077;SDS011;7638;49.760;8.646;2023-04-15T09:53:14;2.60;;;1.90;;
15077;SDS011;7638;49.760;8.646;2023-04-15T09:55:44;3.63;;;1.97;;
15077;SDS011;7638;49.760;8.646;2023-04-15T09:58:17;3.40;;;1.97;;
15077;SDS011;7638;49.760;8.646;2023-04-15T10:00:44;3.70;;;1.57;;
15077;SDS011;7638;49.760;8.646;2023-04-15T10:03:12;2.73;;;2.03;;
15077;SDS011;7638;49.760;8.646;2023-04-15T10:05:39;2.23;;;1.67;;
15077;SDS011;7638;49.760;8.646;2023-04-15T10:08:05;5.20;;;2.07;;
15077;SDS011;7638;49.760;8.646;2023-04-15T10:10:32;1.90;;;1.53;;
15077;SDS011;7638;49.760;8.646;2023-04-15T10:12:58;3.57;;;1.53;;
15077;SDS011;7638;49.760;8.646;2023-04-15T10:15:25;5.17;;;1.20;;
15077;SDS011;7638;49.760;8.646;2023-04-15T10:17:53;3.17;;;1.60;;
15077;SDS011;7638;49.760;8.646;2023-04-15T10:20:19;1.73;;;1.30;;
15077;SDS011;7638;49.760;8.646;2023-04-15T10:22:46;1.37;;;1.20;;
15077;SDS011;7638;49.760;8.646;2023-04-15T10:25:12;2.03;;;1.30;;
15077;SDS011;7638;49.760;8.646;2023-04-15T10:27:40;1.30;;;1.20;;
15077;SDS011;7638;49.760;8.646;2023-04-15T10:30:06;2.20;;;1.47;;
15077;SDS011;7638;49.760;8.646;2023-04-15T10:32:33;2.00;;;1.17;;
15077;SDS011;7638;49.760;8.646;2023-04-15T10:34:59;1.30;;;1.20;;
15077;SDS011;7638;49.760;8.646;2023-04-15T10:37:33;2.60;;;1.63;;
15077;SDS011;7638;49.760;8.646;2023-04-15T10:39:59;1.50;;;1.23;;
15077;SDS011;7638;49.760;8.646;2023-04-15T10:42:32;1.37;;;1.27;;
15077;SDS011;7638;49.760;8.646;2023-04-15T10:45:02;2.80;;;1.00;;
15077;SDS011;7638;49.760;8.646;2023-04-15T10:47:28;1.83;;;1.20;;
15077;SDS011;7638;49.760;8.646;2023-04-15T10:49:58;2.47;;;1.00;;
15077;SDS011;7638;49.760;8.646;2023-04-15T10:52:25;1.30;;;1.10;;
15077;SDS011;7638;49.760;8.646;2023-04-15T10:57:39;2.80;;;1.60;;
15077;SDS011;7638;49.760;8.646;2023-04-15T11:02:51;3.43;;;1.40;;
15077;SDS011;7638;49.760;8.646;2023-04-15T11:05:18;3.27;;;1.53;;
15077;SDS011;7638;49.760;8.646;2023-04-15T11:07:48;3.83;;;1.93;;
15077;SDS011;7638;49.760;8.646;2023-04-15T11:12:45;2.57;;;1.40;;
15077;SDS011;7638;49.760;8.646;2023-04-15T11:16:11;1.33;;;1.13;;
15077;SDS011;7638;49.760;8.646;2023-04-15T11:18:19;3.33;;;2.23;;
15077;SDS011;7638;49.760;8.646;2023-04-15T11:23:13;2.90;;;1.70;;
15077;SDS011;7638;49.760;8.646;2023-04-15T11:25:39;1.63;;;1.47;;
15077;SDS011;7638;49.760;8.646;2023-04-15T11:28:05;1.83;;;1.40;;
15077;SDS011;7638;49.760;8.646;2023-04-15T11:30:33;3.57;;;1.13;;
15077;SDS011;7638;49.760;8.646;2023-04-15T11:33:00;2.33;;;1.40;;
15077;SDS011;7638;49.760;8.646;2023-04-15T11:35:27;1.90;;;1.40;;
15077;SDS011;7638;49.760;8.646;2023-04-15T11:37:53;1.50;;;1.30;;
15077;SDS011;7638;49.760;8.646;2023-04-15T11:40:23;2.20;;;1.10;;
15077;SDS011;7638;49.760;8.646;2023-04-15T11:43:05;2.23;;;1.53;;
15077;SDS011;7638;49.760;8.646;2023-04-15T11:45:33;2.20;;;1.70;;
15077;SDS011;7638;49.760;8.646;2023-04-15T11:48:09;2.37;;;1.70;;
15077;SDS011;7638;49.760;8.646;2023-04-15T11:50:36;4.23;;;1.90;;
15077;SDS011;7638;49.760;8.646;2023-04-15T11:53:04;2.10;;;1.50;;
15077;SDS011;7638;49.760;8.646;2023-04-15T11:55:39;5.20;;;1.40;;
15077;SDS011;7638;49.760;8.646;2023-04-15T12:00:32;2.83;;;1.50;;
15077;SDS011;7638;49.760;8.646;2023-04-15T12:13:58;2.37;;;1.70;;
15077;SDS011;7638;49.760;8.646;2023-04-15T12:16:27;3.87;;;1.70;;
15077;SDS011;7638;49.760;8.646;2023-04-15T12:18:57;2.17;;;1.50;;
15077;SDS011;7638;49.760;8.646;2023-04-15T12:21:24;4.33;;;1.43;;
15077;SDS011;7638;49.760;8.646;2023-04-15T12:23:51;3.00;;;1.40;;
15077;SDS011;7638;49.760;8.646;2023-04-15T12:26:18;4.63;;;1.20;;
15077;SDS011;7638;49.760;8.646;2023-04-15T12:28:52;1.17;;;1.07;;
15077;SDS011;7638;49.760;8.646;2023-04-15T12:31:19;2.00;;;1.20;;
15077;SDS011;7638;49.760;8.646;2023-04-15T12:33:47;2.40;;;1.30;;
15077;SDS011;7638;49.760;8.646;2023-04-15T12:36:13;2.30;;;1.60;;
15077;SDS011;7638;49.760;8.646;2023-04-15T12:38:40;3.13;;;1.33;;
15077;SDS011;7638;49.760;8.646;2023-04-15T12:41:06;2.53;;;1.40;;
15077;SDS011;7638;49.760;8.646;2023-04-15T12:43:32;1.43;;;1.33;;
15077;SDS011;7638;49.760;8.646;2023-04-15T12:45:58;2.40;;;1.10;;
15077;SDS011;7638;49.760;8.646;2023-04-15T12:48:24;3.23;;;1.20;;
15077;SDS011;7638;49.760;8.646;2023-04-15T12:50:50;1.97;;;1.10;;
15077;SDS011;7638;49.760;8.646;2023-04-15T12:53:16;4.30;;;1.20;;
15077;SDS011;7638;49.760;8.646;2023-04-15T12:55:42;0.87;;;0.83;;
15077;SDS011;7638;49.760;8.646;2023-04-15T12:58:08;1.17;;;0.93;;
15077;SDS011;7638;49.760;8.646;2023-04-15T13:00:35;1.97;;;1.10;;
15077;SDS011;7638;49.760;8.646;2023-04-15T13:03:07;2.03;;;1.10;;
15077;SDS011;7638;49.760;8.646;2023-04-15T13:05:33;1.40;;;1.30;;
15077;SDS011;7638;49.760;8.646;2023-04-15T13:08:01;1.23;;;0.90;;
15077;SDS011;7638;49.760;8.646;2023-04-15T13:10:27;4.40;;;1.27;;
15077;SDS011;7638;49.760;8.646;2023-04-15T13:12:53;3.20;;;1.90;;
15077;SDS011;7638;49.760;8.646;2023-04-15T13:15:21;1.93;;;1.73;;
15077;SDS011;7638;49.760;8.646;2023-04-15T13:17:47;2.77;;;1.80;;
15077;SDS011;7638;49.760;8.646;2023-04-15T13:20:13;2.90;;;2.00;;
15077;SDS011;7638;49.760;8.646;2023-04-15T13:22:39;1.83;;;1.73;;
15077;SDS011;7638;49.760;8.646;2023-04-15T13:25:05;3.60;;;1.40;;
15077;SDS011;7638;49.760;8.646;2023-04-15T13:27:32;2.33;;;2.13;;
15077;SDS011;7638;49.760;8.646;2023-04-15T13:29:58;2.70;;;1.67;;
15077;SDS011;7638;49.760;8.646;2023-04-15T13:32:27;4.30;;;1.80;;
15077;SDS011;7638;49.760;8.646;2023-04-15T13:34:53;4.10;;;2.20;;
15077;SDS011;7638;49.760;8.646;2023-04-15T13:37:24;1.83;;;1.50;;
15077;SDS011;7638;49.760;8.646;2023-04-15T13:39:51;2.10;;;1.37;;
15077;SDS011;7638;49.760;8.646;2023-04-15T13:42:16;2.33;;;1.30;;
15077;SDS011;7638;49.760;8.646;2023-04-15T13:44:42;2.50;;;1.83;;
15077;SDS011;7638;49.760;8.646;2023-04-15T13:47:08;1.53;;;1.37;;
15077;SDS011;7638;49.760;8.646;2023-04-15T13:49:35;2.00;;;1.80;;
15077;SDS011;7638;49.760;8.646;2023-04-15T13:52:01;1.47;;;1.37;;
15077;SDS011;7638;49.760;8.646;2023-04-15T13:54:26;1.90;;;1.60;;
15077;SDS011;7638;49.760;8.646;2023-04-15T13:56:53;4.07;;;1.70;;
15077;SDS011;7638;49.760;8.646;2023-04-15T13:59:21;1.47;;;1.30;;
15077;SDS011;7638;49.760;8.646;2023-04-15T14:01:57;3.43;;;1.40;;
15077;SDS011;7638;49.760;8.646;2023-04-15T14:04:23;1.87;;;1.47;;
15077;SDS011;7638;49.760;8.646;2023-04-15T14:06:49;2.43;;;1.40;;
15077;SDS011;7638;49.760;8.646;2023-04-15T14:09:15;2.80;;;1.47;;
15077;SDS011;7638;49.760;8.646;2023-04-15T14:11:41;3.23;;;1.70;;
15077;SDS011;7638;49.760;8.646;2023-04-15T14:14:08;2.50;;;1.63;;
15077;SDS011;7638;49.760;8.646;2023-04-15T14:16:34;0.97;;;0.97;;
15077;SDS011;7638;49.760;8.646;2023-04-15T14:19:00;1.60;;;1.40;;
15077;SDS011;7638;49.760;8.646;2023-04-15T14:21:26;1.67;;;1.20;;
15077;SDS011;7638;49.760;8.646;2023-04-15T14:23:53;1.90;;;1.33;;
15077;SDS011;7638;49.760;8.646;2023-04-15T14:26:19;1.53;;;1.37;;
15077;SDS011;7638;49.760;8.646;2023-04-15T14:28:45;2.23;;;1.60;;
15077;SDS011;7638;49.760;8.646;2023-04-15T14:31:17;2.37;;;2.00;;
15077;SDS011;7638;49.760;8.646;2023-04-15T14:33:44;1.73;;;1.37;;
15077;SDS011;7638;49.760;8.646;2023-04-15T14:36:10;1.37;;;1.17;;
15077;SDS011;7638;49.760;8.646;2023-04-15T14:38:36;1.50;;;1.03;;
15077;SDS011;7638;49.760;8.646;2023-04-15T14:41:03;2.70;;;1.20;;
15077;SDS011;7638;49.760;8.646;2023-04-15T14:43:29;0.80;;;0.80;;
15077;SDS011;7638;49.760;8.646;2023-04-15T14:45:55;2.80;;;1.10;;
15077;SDS011;7638;49.760;8.646;2023-04-15T14:48:21;1.53;;;1.10;;
15077;SDS011;7638;49.760;8.646;2023-04-15T14:50:47;1.13;;;0.93;;
15077;SDS011;7638;49.760;8.646;2023-04-15T14:53:13;1.73;;;0.93;;
15077;SDS011;7638;49.760;8.646;2023-04-15T14:55:39;0.77;;;0.77;;
15077;SDS011;7638;49.760;8.646;2023-04-15T14:58:06;1.60;;;1.23;;
15077;SDS011;7638;49.760;8.646;2023-04-15T15:00:33;1.50;;;0.93;;
15077;SDS011;7638;49.760;8.646;2023-04-15T15:02:59;1.40;;;1.10;;
15077;SDS011;7638;49.760;8.646;2023-04-15T15:05:26;1.10;;;1.00;;
15077;SDS011;7638;49.760;8.646;2023-04-15T15:07:52;0.87;;;0.87;;
15077;SDS011;7638;49.760;8.646;2023-04-15T15:10:18;0.70;;;0.70;;
15077;SDS011;7638;49.760;8.646;2023-04-15T15:12:44;1.20;;;1.07;;
15077;SDS011;7638;49.760;8.646;2023-04-15T15:15:10;2.33;;;1.10;;
15077;SDS011;7638;49.760;8.646;2023-04-15T15:17:36;0.90;;;0.90;;
15077;SDS011;7638;49.760;8.646;2023-04-15T15:20:02;0.77;;;0.77;;
15077;SDS011;7638;49.760;8.646;2023-04-15T15:22:28;1.23;;;1.00;;
15077;SDS011;7638;49.760;8.646;2023-04-15T15:24:54;1.30;;;1.20;;
15077;SDS011;7638;49.760;8.646;2023-04-15T15:27:23;4.03;;;1.00;;
15077;SDS011;7638;49.760;8.646;2023-04-15T15:29:49;1.57;;;1.07;;
15077;SDS011;7638;49.760;8.646;2023-04-15T15:32:15;0.97;;;0.83;;
15077;SDS011;7638;49.760;8.646;2023-04-15T15:34:41;1.33;;;1.07;;
15077;SDS011;7638;49.760;8.646;2023-04-15T15:37:07;0.70;;;0.70;;
15077;SDS011;7638;49.760;8.646;2023-04-15T15:39:33;1.23;;;1.00;;
15077;SDS011;7638;49.760;8.646;2023-04-15T15:42:00;1.13;;;1.03;;
15077;SDS011;7638;49.760;8.646;2023-04-15T15:44:26;1.47;;;0.93;;
15077;SDS011;7638;49.760;8.646;2023-04-15T15:46:52;1.13;;;1.03;;
15077;SDS011;7638;49.760;8.646;2023-04-15T15:49:18;0.97;;;0.93;;
15077;SDS011;7638;49.760;8.646;2023-04-15T15:51:44;1.10;;;1.00;;
15077;SDS011;7638;49.760;8.646;2023-04-15T15:54:10;1.20;;;1.10;;
15077;SDS011;7638;49.760;8.646;2023-04-15T15:56:36;1.00;;;1.00;;
15077;SDS011;7638;49.760;8.646;2023-04-15T15:59:03;1.37;;;1.27;;
15077;SDS011;7638;49.760;8.646;2023-04-15T16:01:41;1.27;;;1.17;;
15077;SDS011;7638;49.760;8.646;2023-04-15T16:04:08;1.63;;;1.33;;